Time;durP1;ratioP1;P1;durP2;ratioP2;P2;SDS_P1;SDS_P2;PMS_P1;PMS_P2;Temp;Humidity;BMP_temperature;BMP_pressure;BME280_temperature;BME280_humidity;BME280_pressure;Samples;Min_cycle;Max_cycle;Signal;HPM_P1;HPM_P2
2021/05/01 00:01:05;;;;;;;10.10;7.78;;;;;;;8.50;65.89;100570.69;5012119;28;20025;-84
2021/05/01 00:03:30;;;;;;;9.02;7.25;;;;;;;8.44;66.28;100566.63;5012077;28;20113;-84
2021/05/01 00:05:56;;;;;;;8.55;7.55;;;;;;;8.45;66.11;100570.09;5012054;28;20029;-84
2021/05/01 00:08:23;;;;;;;9.85;7.70;;;;;;;8.46;65.79;100567.41;5011834;28;20026;-84
2021/05/01 00:10:48;;;;;;;9.00;8.10;;;;;;;8.23;66.58;100563.41;5011895;28;20032;-84
2021/05/01 00:13:14;;;;;;;11.38;8.15;;;;;;;8.05;67.35;100570.50;4994028;28;20022;-84
2021/05/01 00:15:39;;;;;;;9.52;7.43;;;;;;;8.15;65.87;100563.00;4991630;28;20030;-84
2021/05/01 00:18:05;;;;;;;8.48;7.32;;;;;;;7.96;66.95;100563.19;4992555;28;20023;-84
2021/05/01 00:20:30;;;;;;;8.68;7.50;;;;;;;7.99;66.77;100562.16;4992502;28;20397;-84
2021/05/01 00:22:56;;;;;;;9.80;7.43;;;;;;;7.87;68.06;100561.88;4992546;28;20026;-84
2021/05/01 00:25:21;;;;;;;10.45;8.05;;;;;;;7.80;67.71;100555.31;4990808;28;20026;-84
2021/05/01 00:27:47;;;;;;;9.15;7.35;;;;;;;7.79;67.30;100558.84;5006848;28;20036;-84
2021/05/01 00:30:12;;;;;;;10.18;8.07;;;;;;;7.78;68.09;100557.19;5012043;28;20064;-84
2021/05/01 00:32:38;;;;;;;10.20;7.07;;;;;;;7.75;67.82;100559.94;5011839;28;20026;-83
2021/05/01 00:35:04;;;;;;;8.73;7.28;;;;;;;7.79;67.28;100563.25;5004878;28;20117;-85
2021/05/01 00:37:29;;;;;;;9.07;7.13;;;;;;;7.82;67.89;100556.09;4990927;28;20479;-84
2021/05/01 00:39:55;;;;;;;8.88;7.43;;;;;;;7.83;68.21;100555.16;4992502;28;20081;-84
2021/05/01 00:42:20;;;;;;;7.45;6.68;;;;;;;7.84;67.54;100551.63;4991057;28;20033;-84
2021/05/01 00:44:46;;;;;;;8.52;7.13;;;;;;;7.80;67.57;100550.09;4992144;28;20032;-84
2021/05/01 00:47:11;;;;;;;9.38;7.68;;;;;;;7.85;67.46;100542.00;4992805;28;20026;-84
2021/05/01 00:49:37;;;;;;;9.10;8.15;;;;;;;7.71;67.79;100540.13;4993146;28;20113;-84
2021/05/01 00:52:03;;;;;;;8.55;6.97;;;;;;;7.60;68.24;100542.47;4999385;28;20041;-84
2021/05/01 00:54:28;;;;;;;10.07;7.82;;;;;;;7.61;67.24;100537.16;5011690;28;20113;-84
2021/05/01 00:56:54;;;;;;;12.82;8.35;;;;;;;7.55;67.50;100535.72;5011610;28;20464;-84
2021/05/01 00:59:19;;;;;;;12.45;7.18;;;;;;;7.61;68.19;100534.56;5010462;28;20025;-84
2021/05/01 01:01:51;;;;;;;26.25;15.23;;;;;;;7.56;68.05;100531.31;5011636;28;20606;-84
2021/05/01 01:04:18;;;;;;;47.75;23.42;;;;;;;7.49;67.98;100535.22;5011531;28;20045;-84
2021/05/01 01:06:46;;;;;;;25.02;15.10;;;;;;;7.43;69.08;100536.38;5003050;28;20033;-84
2021/05/01 01:09:12;;;;;;;17.27;11.20;;;;;;;7.43;68.90;100527.69;4992009;28;20019;-84
2021/05/01 01:11:38;;;;;;;11.48;8.48;;;;;;;7.37;69.29;100533.25;4991920;28;20536;-84
2021/05/01 01:14:07;;;;;;;12.95;8.50;;;;;;;7.42;69.39;100526.84;4991902;28;20109;-84
2021/05/01 01:16:34;;;;;;;10.25;8.23;;;;;;;7.51;69.33;100533.34;4995739;28;20030;-84
2021/05/01 01:19:00;;;;;;;11.38;8.85;;;;;;;7.46;69.53;100528.34;5011897;28;20160;-83
2021/05/01 01:21:27;;;;;;;25.85;15.40;;;;;;;7.23;69.25;100528.75;5014095;28;20113;-84
2021/05/01 01:23:53;;;;;;;29.60;18.15;;;;;;;7.23;69.14;100528.75;5014964;28;20041;-85
2021/05/01 01:26:18;;;;;;;21.08;12.75;;;;;;;7.21;68.75;100534.06;5014937;28;20120;-84
2021/05/01 01:28:45;;;;;;;16.00;9.68;;;;;;;7.19;69.50;100527.19;5014833;28;20018;-84
2021/05/01 01:31:10;;;;;;;10.35;8.32;;;;;;;7.22;68.57;100532.28;5012090;28;20111;-84
2021/05/01 01:33:37;;;;;;;11.50;8.18;;;;;;;7.06;68.44;100525.22;4994962;28;20481;-84
2021/05/01 01:36:05;;;;;;;12.27;8.23;;;;;;;6.78;70.70;100531.00;4994915;28;20498;-84
2021/05/01 01:38:30;;;;;;;11.30;8.23;;;;;;;6.69;71.99;100529.69;4995101;28;20045;-84
2021/05/01 01:40:56;;;;;;;11.00;7.82;;;;;;;6.87;70.85;100532.31;4995254;28;20027;-83
2021/05/01 01:43:21;;;;;;;10.88;8.70;;;;;;;6.89;70.43;100530.47;4994847;28;20489;-84
2021/05/01 01:45:47;;;;;;;11.85;9.20;;;;;;;6.94;70.56;100531.06;4996087;28;20030;-84
2021/05/01 01:48:12;;;;;;;12.10;9.45;;;;;;;6.92;70.71;100528.53;5014320;28;20495;-84
2021/05/01 01:50:37;;;;;;;12.80;9.88;;;;;;;6.97;70.22;100525.72;5014893;28;20372;-83
2021/05/01 01:53:03;;;;;;;16.13;9.45;;;;;;;6.88;70.19;100523.56;5014406;28;20041;-84
2021/05/01 01:55:29;;;;;;;11.32;9.48;;;;;;;6.88;70.19;100519.19;5014333;28;20037;-84
2021/05/01 01:57:55;;;;;;;12.18;10.30;;;;;;;6.79;70.24;100527.47;5014323;28;20392;-84
2021/05/01 02:00:27;;;;;;;13.75;9.77;;;;;;;6.87;70.75;100527.06;5014022;28;20035;-84
2021/05/01 02:02:53;;;;;;;16.63;10.10;;;;;;;6.82;69.90;100519.50;5013877;28;20030;-84
2021/05/01 02:05:19;;;;;;;12.68;9.80;;;;;;;6.80;70.69;100513.50;5013937;28;20038;-84
2021/05/01 02:07:45;;;;;;;14.13;10.80;;;;;;;6.83;69.30;100521.19;5013954;28;20029;-84
2021/05/01 02:10:13;;;;;;;14.20;10.27;;;;;;;6.74;70.29;100517.25;5014229;28;20037;-84
2021/05/01 02:12:39;;;;;;;11.73;9.82;;;;;;;6.69;70.20;100523.63;5014143;28;20026;-84
2021/05/01 02:15:10;;;;;;;11.48;9.07;;;;;;;6.80;69.37;100515.28;5014579;28;20109;-84
2021/05/01 02:17:37;;;;;;;13.93;10.00;;;;;;;6.73;69.61;100515.59;5013855;28;20026;-84
2021/05/01 02:20:04;;;;;;;13.73;10.20;;;;;;;6.79;69.70;100524.03;4994770;28;20485;-84
2021/05/01 02:22:29;;;;;;;13.35;10.57;;;;;;;6.65;69.59;100522.94;4994236;28;20561;-84
2021/05/01 02:24:54;;;;;;;13.32;10.43;;;;;;;6.52;70.26;100516.66;4994048;28;20113;-84
2021/05/01 02:27:20;;;;;;;11.57;9.30;;;;;;;6.57;70.51;100519.03;4994185;28;20117;-84
2021/05/01 02:29:45;;;;;;;10.80;9.63;;;;;;;6.45;70.60;100510.88;5011699;28;20028;-84
2021/05/01 02:32:10;;;;;;;13.23;9.07;;;;;;;6.50;70.80;100513.28;5013768;28;20084;-84
2021/05/01 02:34:36;;;;;;;14.10;9.73;;;;;;;6.41;71.49;100514.56;5013698;28;20128;-84
2021/05/01 02:37:01;;;;;;;12.93;9.85;;;;;;;6.44;70.80;100508.38;5013555;28;20041;-84
2021/05/01 02:39:26;;;;;;;13.10;10.07;;;;;;;6.28;71.38;100519.53;5001982;28;20030;-84
2021/05/01 02:41:52;;;;;;;15.77;10.68;;;;;;;6.44;70.42;100519.63;4994015;28;20109;-84
2021/05/01 02:44:17;;;;;;;11.93;10.05;;;;;;;6.46;70.55;100517.81;4993741;28;20031;-84
2021/05/01 02:46:43;;;;;;;12.45;10.77;;;;;;;6.33;70.44;100516.69;4993802;28;20028;-84
2021/05/01 02:49:08;;;;;;;11.93;9.95;;;;;;;6.38;70.10;100519.94;4993647;28;20458;-84
2021/05/01 02:51:33;;;;;;;15.18;10.80;;;;;;;6.38;70.35;100519.06;4993869;28;20027;-84
2021/05/01 02:53:58;;;;;;;13.73;10.88;;;;;;;6.39;70.21;100520.78;5002699;28;20426;-84
2021/05/01 02:56:24;;;;;;;12.27;10.23;;;;;;;6.41;71.06;100516.34;5013251;28;20495;-84
2021/05/01 02:58:49;;;;;;;13.07;10.48;;;;;;;6.37;70.77;100515.63;5013167;28;20496;-84
2021/05/01 03:01:15;;;;;;;13.43;10.57;;;;;;;6.39;70.09;100515.56;5013128;28;20026;-84
2021/05/01 03:03:45;;;;;;;15.18;11.77;;;;;;;6.37;69.80;100509.56;5012841;28;20108;-84
2021/05/01 03:06:11;;;;;;;15.43;11.88;;;;;;;6.21;70.33;100506.88;5012993;28;20392;-84
2021/05/01 03:08:36;;;;;;;19.55;12.32;;;;;;;6.08;71.96;100509.19;5004391;28;20026;-84
2021/05/01 03:11:01;;;;;;;15.02;11.38;;;;;;;6.07;71.72;100510.13;5005041;28;20120;-84
2021/05/01 03:13:27;;;;;;;17.38;12.38;;;;;;;6.04;71.88;100511.13;5014109;28;20113;-84
2021/05/01 03:15:52;;;;;;;14.73;11.45;;;;;;;6.03;71.96;100511.19;5014371;28;20036;-84
2021/05/01 03:18:17;;;;;;;16.50;12.73;;;;;;;6.05;72.47;100498.94;5012950;28;20037;-84
2021/05/01 03:20:43;;;;;;;13.00;11.20;;;;;;;6.11;72.27;100507.31;5012769;28;20022;-84
2021/05/01 03:23:08;;;;;;;16.40;13.25;;;;;;;6.02;72.30;100499.06;5012933;28;20025;-84
2021/05/01 03:25:34;;;;;;;18.45;14.60;;;;;;;5.78;73.84;100509.69;5002284;28;20034;-84
2021/05/01 03:27:59;;;;;;;17.05;13.73;;;;;;;5.94;73.52;100504.63;4993071;28;20026;-84
2021/05/01 03:30:25;;;;;;;21.27;13.98;;;;;;;6.03;72.90;100503.38;4993025;28;20030;-84
2021/05/01 03:32:50;;;;;;;18.65;14.18;;;;;;;6.00;72.44;100501.75;4992848;28;20033;-84
2021/05/01 03:35:16;;;;;;;18.60;14.25;;;;;;;5.93;72.19;100503.78;4997309;28;20026;-84
2021/05/01 03:37:42;;;;;;;20.23;13.75;;;;;;;6.05;71.95;100510.19;5012445;28;20084;-84
2021/05/01 03:40:09;;;;;;;16.60;13.18;;;;;;;6.06;71.45;100511.03;5012532;28;20057;-83
2021/05/01 03:42:35;;;;;;;17.83;13.73;;;;;;;6.05;71.47;100505.00;5011749;28;20080;-84
2021/05/01 03:45:01;;;;;;;16.98;13.70;;;;;;;6.03;71.48;100500.78;5010966;28;20030;-84
2021/05/01 03:47:26;;;;;;;16.75;12.98;;;;;;;5.93;70.98;100495.97;5012310;28;20025;-84
2021/05/01 03:49:51;;;;;;;15.43;12.88;;;;;;;5.83;70.61;100497.31;5009075;28;20233;-84
2021/05/01 03:52:18;;;;;;;16.08;13.30;;;;;;;5.91;71.89;100504.78;5012095;28;20499;-84
2021/05/01 03:54:43;;;;;;;18.38;15.20;;;;;;;5.86;71.94;100502.38;5012147;28;20022;-84
2021/05/01 03:57:08;;;;;;;17.55;13.30;;;;;;;5.87;71.76;100514.50;5012245;28;20037;-83
2021/05/01 03:59:34;;;;;;;19.70;14.02;;;;;;;5.82;72.02;100513.84;5012142;28;20022;-84
2021/05/01 04:01:59;;;;;;;17.98;13.52;;;;;;;5.78;71.77;100508.84;5012682;28;20148;-85
2021/05/01 04:04:25;;;;;;;16.48;13.43;;;;;;;5.63;72.38;100515.59;5010485;28;20385;-85
2021/05/01 04:06:51;;;;;;;17.85;14.73;;;;;;;5.71;72.77;100513.53;4997457;28;20173;-84
2021/05/01 04:09:16;;;;;;;18.17;14.10;;;;;;;5.72;71.88;100505.63;5012027;28;20109;-84
2021/05/01 04:11:41;;;;;;;17.42;14.10;;;;;;;5.78;71.90;100508.84;5012056;28;20029;-84
2021/05/01 04:14:07;;;;;;;18.50;15.02;;;;;;;5.80;72.18;100526.09;5012106;28;20171;-84
2021/05/01 04:16:32;;;;;;;22.17;14.18;;;;;;;5.66;71.59;100520.69;4995170;28;20619;-84
2021/05/01 04:18:57;;;;;;;17.23;13.73;;;;;;;5.53;71.71;100515.22;4992392;28;20034;-84
2021/05/01 04:21:23;;;;;;;15.73;13.05;;;;;;;5.43;72.70;100519.13;4992622;28;20037;-84
2021/05/01 04:23:48;;;;;;;16.73;12.32;;;;;;;5.66;71.71;100528.50;4992151;28;20033;-84
2021/05/01 04:26:15;;;;;;;18.33;14.57;;;;;;;5.72;71.67;100523.00;4992225;28;20023;-84
2021/05/01 04:28:40;;;;;;;18.38;13.98;;;;;;;5.76;71.93;100527.16;4991115;28;20395;-84
2021/05/01 04:31:06;;;;;;;17.00;14.52;;;;;;;5.81;72.22;100525.19;4992269;28;20027;-84
2021/05/01 04:33:31;;;;;;;17.08;13.93;;;;;;;5.80;71.51;100531.31;4992290;28;20019;-84
2021/05/01 04:35:57;;;;;;;17.33;13.93;;;;;;;5.74;72.12;100527.22;4992181;28;20046;-84
2021/05/01 04:38:23;;;;;;;16.70;14.02;;;;;;;5.82;71.80;100534.69;5010982;28;20030;-84
2021/05/01 04:40:49;;;;;;;17.10;13.10;;;;;;;5.71;71.45;100526.53;5011871;28;20376;-84
2021/05/01 04:43:16;;;;;;;16.80;13.35;;;;;;;5.65;72.06;100526.84;5011867;28;20084;-85
2021/05/01 04:45:42;;;;;;;17.00;13.93;;;;;;;5.62;71.74;100529.56;5011760;28;20030;-84
2021/05/01 04:48:08;;;;;;;16.23;13.73;;;;;;;5.59;72.19;100530.56;4996309;28;20440;-84
2021/05/01 04:50:34;;;;;;;20.13;13.32;;;;;;;5.61;71.51;100543.50;5008353;28;20201;-84
2021/05/01 04:53:00;;;;;;;18.15;14.85;;;;;;;5.64;71.83;100538.16;5012176;28;20030;-84
2021/05/01 04:55:26;;;;;;;17.92;14.23;;;;;;;5.64;71.94;100540.75;5015489;28;20030;-84
2021/05/01 04:57:53;;;;;;;19.92;14.32;;;;;;;5.46;72.52;100540.66;5015440;28;20022;-84
2021/05/01 05:00:19;;;;;;;18.30;13.85;;;;;;;5.62;71.88;100543.41;5014069;28;20480;-84
2021/05/01 05:02:46;;;;;;;25.92;15.93;;;;;;;5.61;73.35;100548.69;5015404;28;20068;-84
2021/05/01 05:05:13;;;;;;;21.08;16.00;;;;;;;5.46;74.28;100558.88;4998495;28;20038;-84
2021/05/01 05:07:39;;;;;;;19.42;15.05;;;;;;;5.50;74.92;100563.06;4995573;28;20062;-84
2021/05/01 05:10:06;;;;;;;19.70;14.27;;;;;;;5.67;73.70;100561.47;4995599;28;20022;-84
2021/05/01 05:12:32;;;;;;;20.80;15.77;;;;;;;5.81;73.33;100555.63;4994389;28;20444;-84
2021/05/01 05:14:57;;;;;;;18.92;15.23;;;;;;;5.95;72.53;100568.91;4996119;28;20018;-84
2021/05/01 05:17:22;;;;;;;18.42;15.02;;;;;;;5.97;73.40;100572.28;5004139;28;20029;-84
2021/05/01 05:19:48;;;;;;;19.83;15.57;;;;;;;6.08;73.37;100575.25;5014779;28;20385;-84
2021/05/01 05:22:13;;;;;;;22.75;16.63;;;;;;;6.19;72.91;100577.34;5015022;28;20076;-84
2021/05/01 05:24:40;;;;;;;19.08;15.68;;;;;;;6.30;73.61;100574.22;5014899;28;20404;-84
2021/05/01 05:27:06;;;;;;;18.25;14.90;;;;;;;6.37;73.35;100575.63;5014784;28;20030;-84
2021/05/01 05:29:33;;;;;;;17.70;15.55;;;;;;;6.49;72.70;100571.56;5014765;28;20033;-84
2021/05/01 05:31:58;;;;;;;19.30;15.30;;;;;;;6.63;73.43;100581.34;5013138;28;20494;-84
2021/05/01 05:34:24;;;;;;;19.52;15.38;;;;;;;6.51;73.17;100575.78;5013350;28;20132;-84
2021/05/01 05:36:49;;;;;;;20.17;15.93;;;;;;;6.60;73.17;100577.13;5014728;28;20022;-84
2021/05/01 05:39:15;;;;;;;18.10;15.05;;;;;;;6.71;73.35;100576.59;5018797;28;20477;-84
2021/05/01 05:41:41;;;;;;;19.02;15.07;;;;;;;6.86;72.70;100582.84;5014806;28;20072;-84
2021/05/01 05:44:07;;;;;;;18.95;15.32;;;;;;;6.89;72.18;100577.44;5014493;28;20053;-84
2021/05/01 05:46:32;;;;;;;19.80;15.43;;;;;;;6.85;73.06;100582.00;5013127;28;20084;-84
2021/05/01 05:48:58;;;;;;;21.70;16.55;;;;;;;6.60;73.18;100578.91;5014401;28;20469;-84
2021/05/01 05:51:23;;;;;;;24.00;17.33;;;;;;;6.85;74.19;100584.59;5014418;28;20025;-85
2021/05/01 05:53:49;;;;;;;19.17;15.75;;;;;;;7.14;73.18;100583.13;5014398;28;20030;-84
2021/05/01 05:56:15;;;;;;;20.35;15.70;;;;;;;7.35;72.32;100582.97;5010158;28;20036;-84
2021/05/01 05:58:41;;;;;;;19.05;14.98;;;;;;;7.49;71.65;100580.47;4993205;28;20076;-84
2021/05/01 06:01:06;;;;;;;19.02;14.43;;;;;;;7.46;72.05;100588.44;4994838;28;20492;-84
2021/05/01 06:03:34;;;;;;;18.13;14.57;;;;;;;7.87;70.95;100585.41;4994658;28;20022;-84
2021/05/01 06:06:03;;;;;;;19.05;14.68;;;;;;;8.01;69.72;100592.53;4993595;28;20027;-84
2021/05/01 06:08:30;;;;;;;18.23;15.20;;;;;;;8.09;70.08;100595.56;4994553;28;20026;-84
2021/05/01 06:10:57;;;;;;;24.25;14.13;;;;;;;8.26;69.47;100605.09;5006991;28;20037;-84
2021/05/01 06:13:24;;;;;;;16.75;14.43;;;;;;;8.41;70.23;100599.94;5013834;28;20018;-85
2021/05/01 06:15:50;;;;;;;17.65;14.38;;;;;;;8.29;70.37;100610.19;5014658;28;20515;-84
2021/05/01 06:18:22;;;;;;;16.60;14.20;;;;;;;8.58;70.05;100599.88;5014120;28;20058;-84
2021/05/01 06:20:48;;;;;;;16.65;13.75;;;;;;;8.82;68.54;100612.50;5014013;28;20026;-84
2021/05/01 06:23:16;;;;;;;16.83;14.23;;;;;;;9.05;68.69;100612.03;5013923;28;20026;-84
2021/05/01 06:25:42;;;;;;;16.73;13.70;;;;;;;9.17;67.59;100609.63;5000639;28;20034;-84
2021/05/01 06:28:07;;;;;;;19.92;14.80;;;;;;;9.36;67.54;100605.00;4994068;28;20089;-84
2021/05/01 06:30:38;;;;;;;20.35;14.60;;;;;;;9.42;66.65;100609.00;4993957;28;20066;-84
2021/05/01 06:33:04;;;;;;;16.83;13.85;;;;;;;10.37;63.17;100616.28;4994304;28;20448;-84
2021/05/01 06:35:29;;;;;;;17.73;14.43;;;;;;;10.40;61.02;100615.25;4994168;28;20029;-84
2021/05/01 06:37:55;;;;;;;16.63;13.30;;;;;;;11.48;59.91;100614.25;4993980;28;20420;-84
2021/05/01 06:40:25;;;;;;;16.45;12.38;;;;;;;11.68;57.21;100611.06;4996072;28;20037;-85
2021/05/01 06:43:02;;;;;;;14.68;11.73;;;;;;;12.34;55.57;100616.13;5002018;28;20374;-84
2021/05/01 06:45:28;;;;;;;13.52;11.57;;;;;;;13.22;52.44;100621.06;4993694;28;20023;-85
2021/05/01 06:47:56;;;;;;;13.85;11.07;;;;;;;14.08;50.02;100629.47;4994263;28;20030;-85
2021/05/01 06:50:26;;;;;;;12.85;10.65;;;;;;;14.58;47.05;100623.75;4993856;28;20061;-85
2021/05/01 06:52:51;;;;;;;11.07;9.88;;;;;;;15.23;46.06;100625.38;4992356;28;20022;-85
2021/05/01 06:55:19;;;;;;;10.35;9.15;;;;;;;16.08;44.91;100620.81;4993637;28;20053;-85
2021/05/01 06:57:47;;;;;;;11.80;9.25;;;;;;;16.08;42.55;100623.47;4996190;28;20019;-85
2021/05/01 07:00:14;;;;;;;10.55;8.48;;;;;;;16.73;41.59;100628.34;5006079;28;20057;-85
2021/05/01 07:02:48;;;;;;;9.85;7.63;;;;;;;17.45;39.96;100630.50;5013048;28;20388;-84
2021/05/01 07:05:16;;;;;;;8.25;7.43;;;;;;;17.78;38.90;100630.16;5012900;28;20127;-84
2021/05/01 07:07:42;;;;;;;10.13;7.13;;;;;;;17.85;38.24;100625.94;5013215;28;20124;-85
2021/05/01 07:10:09;;;;;;;7.88;6.72;;;;;;;17.90;38.43;100628.19;5013006;28;20496;-85
2021/05/01 07:12:35;;;;;;;7.70;6.90;;;;;;;18.09;37.71;100627.22;5012385;28;20037;-85
2021/05/01 07:15:05;;;;;;;9.45;7.35;;;;;;;18.41;37.13;100635.59;5019197;28;20025;-85
2021/05/01 07:17:31;;;;;;;7.45;6.70;;;;;;;18.03;37.00;100634.00;5032387;28;20032;-85
2021/05/01 07:19:59;;;;;;;7.32;6.63;;;;;;;18.27;36.73;100635.28;5011578;28;20014;-85
2021/05/01 07:22:25;;;;;;;10.30;6.70;;;;;;;18.29;36.26;100634.13;5007973;28;20030;-85
2021/05/01 07:24:50;;;;;;;7.10;6.40;;;;;;;18.67;35.96;100626.88;5012455;28;20021;-85
2021/05/01 07:27:16;;;;;;;14.93;10.20;;;;;;;18.75;35.39;100632.28;5007674;28;20400;-85
2021/05/01 07:29:44;;;;;;;15.98;13.13;;;;;;;18.47;36.45;100625.34;5012746;28;20396;-85
2021/05/01 07:32:14;;;;;;;13.77;10.60;;;;;;;18.60;35.81;100626.66;5010302;28;20034;-85
2021/05/01 07:34:49;;;;;;;11.40;10.20;;;;;;;19.37;35.10;100627.00;5009819;28;20018;-85
2021/05/01 07:37:21;;;;;;;9.75;8.75;;;;;;;19.35;35.49;100620.13;5008473;28;20400;-85
2021/05/01 07:39:53;;;;;;;11.27;8.60;;;;;;;19.71;34.32;100631.56;5001335;28;20103;-85
2021/05/01 07:42:21;;;;;;;9.20;7.47;;;;;;;19.69;34.16;100628.19;5011757;28;20064;-84
2021/05/01 07:44:47;;;;;;;8.55;6.80;;;;;;;20.16;33.88;100632.25;5011818;28;20108;-84
2021/05/01 07:47:15;;;;;;;9.35;7.15;;;;;;;20.23;33.63;100627.94;5012238;28;20080;-85
2021/05/01 07:49:41;;;;;;;10.23;7.65;;;;;;;20.93;32.63;100643.63;5011965;28;20029;-84
2021/05/01 07:52:07;;;;;;;9.73;6.90;;;;;;;20.58;33.90;100629.53;5010126;28;20054;-84
2021/05/01 07:54:34;;;;;;;11.75;7.00;;;;;;;21.11;32.22;100627.44;5013345;28;20112;-87
2021/05/01 07:57:00;;;;;;;8.02;6.65;;;;;;;21.47;31.41;100634.28;5008175;28;20481;-83
2021/05/01 07:59:25;;;;;;;6.85;6.25;;;;;;;22.10;30.57;100636.06;5012180;28;20088;-83
2021/05/01 08:01:51;;;;;;;9.98;6.55;;;;;;;22.47;29.97;100639.09;5017395;28;20435;-81
2021/05/01 08:04:16;;;;;;;7.43;6.13;;;;;;;22.73;30.20;100633.41;5013321;28;20026;-83
2021/05/01 08:06:42;;;;;;;8.55;6.40;;;;;;;23.11;30.02;100633.47;5010730;28;20025;-83
2021/05/01 08:09:07;;;;;;;11.05;6.70;;;;;;;22.43;30.54;100643.94;5009988;28;20034;-83
2021/05/01 08:11:32;;;;;;;8.50;5.18;;;;;;;23.16;30.63;100636.44;5011073;28;20057;-83
2021/05/01 08:13:58;;;;;;;7.00;6.00;;;;;;;22.97;29.08;100638.56;5009878;28;20030;-83
2021/05/01 08:16:24;;;;;;;5.57;4.20;;;;;;;23.56;29.55;100645.09;5009278;28;20105;-83
2021/05/01 08:18:52;;;;;;;7.28;5.15;;;;;;;24.10;27.61;100634.09;5010019;28;20060;-83
2021/05/01 08:21:19;;;;;;;8.32;5.68;;;;;;;23.68;28.51;100638.28;5010464;28;20034;-83
2021/05/01 08:23:44;;;;;;;15.23;5.80;;;;;;;23.17;28.78;100649.66;5010090;28;20022;-83
2021/05/01 08:26:10;;;;;;;6.00;4.95;;;;;;;21.87;31.14;100643.19;5010926;28;20022;-83
2021/05/01 08:28:35;;;;;;;7.55;5.47;;;;;;;21.67;30.15;100650.75;5010783;28;20018;-83
2021/05/01 08:31:01;;;;;;;7.13;6.43;;;;;;;22.93;29.67;100647.16;5014691;28;20029;-83
2021/05/01 08:33:27;;;;;;;6.15;4.68;;;;;;;23.91;27.16;100648.94;5016096;28;20029;-83
2021/05/01 08:35:52;;;;;;;5.72;5.10;;;;;;;23.73;26.95;100645.75;5015826;28;20025;-83
2021/05/01 08:38:20;;;;;;;6.13;5.13;;;;;;;23.70;27.13;100641.59;5014636;28;20045;-83
2021/05/01 08:40:45;;;;;;;6.97;5.47;;;;;;;23.60;27.20;100654.44;5011928;28;20026;-83
2021/05/01 08:43:11;;;;;;;7.13;5.00;;;;;;;22.07;28.50;100646.28;5015240;28;20040;-83
2021/05/01 08:45:36;;;;;;;6.45;5.15;;;;;;;22.94;28.53;100652.31;5002092;28;20038;-83
2021/05/01 08:48:02;;;;;;;4.38;4.03;;;;;;;22.95;27.86;100645.94;5015527;28;20543;-83
2021/05/01 08:50:30;;;;;;;6.47;4.80;;;;;;;23.26;28.19;100649.56;5011080;28;20393;-83
2021/05/01 08:52:57;;;;;;;8.82;5.80;;;;;;;22.76;28.51;100646.44;4996834;28;20019;-83
2021/05/01 08:55:23;;;;;;;6.45;5.72;;;;;;;21.66;30.27;100649.09;5014424;28;20092;-83
2021/05/01 08:57:49;;;;;;;5.65;5.15;;;;;;;22.23;30.84;100648.88;5015105;28;20026;-83
2021/05/01 09:00:15;;;;;;;7.72;5.45;;;;;;;22.39;30.35;100639.97;5003667;28;20058;-83
2021/05/01 09:02:41;;;;;;;6.40;4.70;;;;;;;23.69;27.32;100647.97;5014540;28;20080;-82
2021/05/01 09:05:11;;;;;;;5.72;4.95;;;;;;;23.98;25.61;100642.81;5014496;28;20038;-83
2021/05/01 09:07:38;;;;;;;8.27;5.22;;;;;;;24.41;26.65;100634.84;5007921;28;20028;-83
2021/05/01 09:10:06;;;;;;;7.55;5.00;;;;;;;24.12;25.62;100636.59;5009789;28;20461;-83
2021/05/01 09:12:43;;;;;;;7.07;4.72;;;;;;;22.71;27.35;100640.75;5009468;28;20064;-84
2021/05/01 09:15:11;;;;;;;11.38;4.40;;;;;;;21.66;28.72;100638.38;5014473;28;20022;-89
2021/05/01 09:17:38;;;;;;;7.43;5.43;;;;;;;20.90;31.07;100638.59;5010040;28;20045;-83
2021/05/01 09:20:14;;;;;;;7.18;5.40;;;;;;;19.46;33.57;100646.53;5009936;28;20030;-82
2021/05/01 09:22:54;;;;;;;9.35;6.10;;;;;;;18.80;35.81;100650.50;5008262;28;20392;-82
2021/05/01 09:25:19;;;;;;;8.40;6.07;;;;;;;18.90;34.45;100643.25;5010544;28;20392;-82
2021/05/01 09:28:01;;;;;;;8.88;6.22;;;;;;;18.30;36.65;100648.25;5010031;28;20022;-82
2021/05/01 09:30:29;;;;;;;7.03;6.32;;;;;;;18.34;35.72;100646.97;5012674;28;20030;-82
2021/05/01 09:33:22;;;;;;;8.68;7.15;;;;;;;18.17;37.28;100651.28;5011437;28;20056;-82
2021/05/01 09:35:53;;;;;;;8.52;6.30;;;;;;;17.92;37.64;100644.81;5003849;28;20132;-82
2021/05/01 09:38:19;;;;;;;7.60;6.03;;;;;;;20.04;35.24;100638.88;5010734;28;20110;-82
2021/05/01 09:40:46;;;;;;;6.78;6.05;;;;;;;21.67;31.04;100640.06;5006921;28;20121;-82
2021/05/01 09:43:12;;;;;;;8.32;6.20;;;;;;;22.68;30.66;100643.81;5010338;28;20038;-82
2021/05/01 09:45:38;;;;;;;8.52;6.78;;;;;;;23.51;27.49;100639.44;5012835;28;20034;-83
2021/05/01 09:48:14;;;;;;;8.05;5.95;;;;;;;24.28;26.55;100632.88;5012031;28;20030;-82
2021/05/01 09:50:41;;;;;;;8.52;5.05;;;;;;;24.52;26.19;100634.41;5008600;28;20029;-82
2021/05/01 09:53:11;;;;;;;9.00;5.28;;;;;;;25.03;25.48;100638.81;5013585;28;20030;-82
2021/05/01 09:55:54;;;;;;;6.60;5.10;;;;;;;25.87;24.58;100632.59;5013311;28;20480;-82
2021/05/01 09:58:22;;;;;;;8.27;5.57;;;;;;;25.01;23.80;100630.13;5009882;28;20038;-83
2021/05/01 10:00:50;;;;;;;5.85;4.80;;;;;;;25.33;22.83;100634.13;5011404;28;20026;-83
2021/05/01 10:03:18;;;;;;;5.80;5.25;;;;;;;24.41;24.72;100624.97;5013643;28;20029;-83
2021/05/01 10:05:46;;;;;;;6.95;5.03;;;;;;;24.61;22.99;100627.06;5013351;28;20051;-83
2021/05/01 10:08:14;;;;;;;9.00;5.75;;;;;;;25.96;23.81;100639.50;5013347;28;20036;-83
2021/05/01 10:10:40;;;;;;;5.45;4.95;;;;;;;26.30;22.01;100630.53;5013413;28;20060;-83
2021/05/01 10:13:06;;;;;;;6.68;4.82;;;;;;;26.31;21.39;100626.81;5012841;28;20109;-84
2021/05/01 10:15:32;;;;;;;7.35;5.28;;;;;;;26.10;22.11;100625.06;5011633;28;20117;-83
2021/05/01 10:18:16;;;;;;;7.72;4.97;;;;;;;25.33;21.48;100623.38;5004584;28;20480;-83
2021/05/01 10:20:47;;;;;;;7.05;4.82;;;;;;;23.63;25.29;100623.75;5013999;28;20392;-83
2021/05/01 10:23:15;;;;;;;8.30;5.60;;;;;;;23.14;25.74;100620.56;5013383;28;20034;-83
2021/05/01 10:25:42;;;;;;;6.70;4.63;;;;;;;22.68;24.90;100625.06;5013800;28;20037;-83
2021/05/01 10:28:14;;;;;;;5.78;5.22;;;;;;;21.47;27.83;100626.25;5013790;28;20025;-83
2021/05/01 10:31:00;;;;;;;5.90;5.20;;;;;;;21.13;29.50;100619.25;5013678;28;20387;-84
2021/05/01 10:33:33;;;;;;;8.00;5.85;;;;;;;20.56;29.40;100625.38;5011365;28;20073;-83
2021/05/01 10:36:23;;;;;;;9.60;5.43;;;;;;;21.31;28.36;100627.91;5001824;28;20053;-83
2021/05/01 10:39:07;;;;;;;6.97;5.38;;;;;;;22.15;27.37;100630.19;5013279;28;20033;-83
2021/05/01 10:41:34;;;;;;;7.20;5.32;;;;;;;22.75;26.79;100623.38;5013275;28;20029;-82
2021/05/01 10:44:02;;;;;;;6.63;4.93;;;;;;;23.65;25.72;100613.66;5009547;28;20025;-83
2021/05/01 10:46:30;;;;;;;5.60;4.10;;;;;;;24.69;25.18;100613.53;5012982;28;20088;-83
2021/05/01 10:48:58;;;;;;;5.20;3.90;;;;;;;25.42;25.68;100610.63;5006964;28;20101;-83
2021/05/01 10:51:26;;;;;;;5.03;4.40;;;;;;;25.17;24.65;100607.53;4995877;28;20041;-84
2021/05/01 10:54:21;;;;;;;7.53;4.38;;;;;;;25.98;22.89;100612.41;5013267;28;20056;-83
2021/05/01 10:56:53;;;;;;;7.97;4.43;;;;;;;27.09;19.71;100607.47;5001490;28;20030;-83
2021/05/01 10:59:23;;;;;;;5.55;3.88;;;;;;;27.51;21.06;100601.84;5013332;28;20021;-83
2021/05/01 11:01:51;;;;;;;7.63;5.33;;;;;;;26.28;23.52;100597.63;5012583;28;20022;-83
2021/05/01 11:04:19;;;;;;;7.18;5.35;;;;;;;25.50;24.02;100611.28;5011768;28;20284;-83
2021/05/01 11:06:44;;;;;;;5.68;4.60;;;;;;;25.41;22.62;100614.34;5006647;28;20388;-83
2021/05/01 11:09:12;;;;;;;6.47;4.70;;;;;;;23.79;26.89;100606.69;5012066;28;20030;-83
2021/05/01 11:11:42;;;;;;;7.72;4.47;;;;;;;21.94;28.83;100617.44;5003981;28;20057;-83
2021/05/01 11:14:13;;;;;;;5.13;4.30;;;;;;;21.65;29.84;100624.22;5012917;28;20148;-83
2021/05/01 11:16:44;;;;;;;8.63;4.43;;;;;;;20.62;31.59;100623.88;5007205;28;20030;-83
2021/05/01 11:19:12;;;;;;;6.28;5.28;;;;;;;19.95;34.16;100620.19;5001940;28;20030;-82
2021/05/01 11:21:41;;;;;;;5.90;4.53;;;;;;;19.55;34.90;100621.63;5012130;28;20376;-83